Time;durP1;ratioP1;P1;durP2;ratioP2;P2;SDS_P1;SDS_P2;PMS_P1;PMS_P2;Temp;Humidity;BMP_temperature;BMP_pressure;BME280_temperature;BME280_humidity;BME280_pressure;Samples;Min_cycle;Max_cycle;Signal;HPM_P1;HPM_P2
2021/08/27 00:02:03;;;;;;;0.15;0.10;;;;;;;;;;5013410;28;20020;-42
2021/08/27 00:04:28;;;;;;;0.22;0.17;;;;;;;;;;5013158;28;20543;-42
2021/08/27 00:06:53;;;;;;;0.35;0.22;;;;;;;;;;5013224;28;20021;-43
2021/08/27 00:09:19;;;;;;;0.95;0.30;;;;;;;;;;5013025;28;20579;-43
2021/08/27 00:11:44;;;;;;;0.40;0.30;;;;;;;;;;5013363;28;20022;-43
2021/08/27 00:14:10;;;;;;;0.10;0.10;;;;;;;;;;5012804;28;20465;-43
2021/08/27 00:16:35;;;;;;;0.17;0.17;;;;;;;;;;5013010;28;20026;-43
2021/08/27 00:19:00;;;;;;;1.95;0.30;;;;;;;;;;5012850;28;20022;-42
2021/08/27 00:21:26;;;;;;;0.10;0.10;;;;;;;;;;5012978;28;20060;-42
2021/08/27 00:23:51;;;;;;;0.98;0.13;;;;;;;;;;5013086;28;20034;-42
2021/08/27 00:26:17;;;;;;;0.65;0.20;;;;;;;;;;5012992;28;20432;-42
2021/08/27 00:28:42;;;;;;;0.65;0.38;;;;;;;;;;5012778;28;20049;-43
2021/08/27 00:31:07;;;;;;;0.35;0.10;;;;;;;;;;5012803;28;20105;-42
2021/08/27 00:33:33;;;;;;;0.20;0.20;;;;;;;;;;5012712;28;20473;-43
2021/08/27 00:35:58;;;;;;;0.10;0.10;;;;;;;;;;5012892;28;20026;-42
2021/08/27 00:38:24;;;;;;;4.07;0.30;;;;;;;;;;5013005;28;20113;-42
2021/08/27 00:40:49;;;;;;;0.55;0.20;;;;;;;;;;5012775;28;20113;-42
2021/08/27 00:43:15;;;;;;;0.75;0.30;;;;;;;;;;5012480;28;20046;-42
2021/08/27 00:45:41;;;;;;;0.20;0.20;;;;;;;;;;5012898;28;20033;-41
2021/08/27 00:48:07;;;;;;;1.38;0.70;;;;;;;;;;5012542;28;20048;-42
2021/08/27 00:50:32;;;;;;;0.20;0.20;;;;;;;;;;5044652;28;20021;-42
2021/08/27 00:52:58;;;;;;;2.13;0.20;;;;;;;;;;5012577;28;20022;-43
2021/08/27 00:55:23;;;;;;;0.85;0.28;;;;;;;;;;5013151;28;20381;-42
2021/08/27 00:57:49;;;;;;;0.30;0.30;;;;;;;;;;5016531;28;20033;-42
2021/08/27 01:00:14;;;;;;;0.35;0.30;;;;;;;;;;5016563;28;20050;-42
2021/08/27 01:02:40;;;;;;;0.20;0.20;;;;;;;;;;5016785;28;20022;-42
2021/08/27 01:05:07;;;;;;;0.10;0.10;;;;;;;;;;5016280;28;20481;-42
2021/08/27 01:07:35;;;;;;;0.32;0.10;;;;;;;;;;5016361;28;20021;-43
2021/08/27 01:10:10;;;;;;;0.20;0.10;;;;;;;;;;5016623;28;20100;-43
2021/08/27 01:12:38;;;;;;;1.90;0.20;;;;;;;;;;5016568;28;20052;-42
2021/08/27 01:15:12;;;;;;;0.13;0.13;;;;;;;;;;5016160;28;20041;-43
2021/08/27 01:17:40;;;;;;;0.08;0.08;;;;;;;;;;5016498;28;20018;-43
2021/08/27 01:20:06;;;;;;;0.43;0.20;;;;;;;;;;5016116;28;20527;-43
2021/08/27 01:22:40;;;;;;;0.10;0.10;;;;;;;;;;5016212;28;20030;-42
2021/08/27 01:25:07;;;;;;;0.10;0.10;;;;;;;;;;5015942;28;20022;-43
2021/08/27 01:27:34;;;;;;;0.22;0.22;;;;;;;;;;5016271;28;20353;-43
2021/08/27 01:29:59;;;;;;;0.25;0.10;;;;;;;;;;5016161;28;20049;-42
2021/08/27 01:32:48;;;;;;;0.35;0.28;;;;;;;;;;5016190;28;20364;-42
2021/08/27 01:35:14;;;;;;;2.15;0.10;;;;;;;;;;5012799;28;20473;-42
2021/08/27 01:37:44;;;;;;;0.20;0.20;;;;;;;;;;5016196;28;20026;-42
2021/08/27 01:40:10;;;;;;;1.95;0.10;;;;;;;;;;5015915;28;20040;-43
2021/08/27 01:42:36;;;;;;;0.10;0.10;;;;;;;;;;5015586;28;20022;-43
2021/08/27 01:45:03;;;;;;;4.80;0.30;;;;;;;;;;5015689;28;20029;-42
2021/08/27 01:47:31;;;;;;;0.15;0.10;;;;;;;;;;5015525;28;20538;-42
2021/08/27 01:49:57;;;;;;;0.15;0.10;;;;;;;;;;5015902;28;20040;-42
2021/08/27 01:52:23;;;;;;;0.00;0.00;;;;;;;;;;5015845;28;20452;-42
2021/08/27 01:54:48;;;;;;;0.20;0.20;;;;;;;;;;5015505;28;20064;-43
2021/08/27 01:57:14;;;;;;;1.75;0.32;;;;;;;;;;5015474;28;20429;-42
2021/08/27 01:59:41;;;;;;;0.28;0.20;;;;;;;;;;5015395;28;20038;-43
2021/08/27 02:02:08;;;;;;;1.17;0.45;;;;;;;;;;5015585;28;20021;-43
2021/08/27 02:04:34;;;;;;;0.30;0.30;;;;;;;;;;5015357;28;20025;-42
2021/08/27 02:07:00;;;;;;;0.35;0.20;;;;;;;;;;5014929;28;20053;-43
2021/08/27 02:09:26;;;;;;;0.30;0.15;;;;;;;;;;5015267;28;20065;-42
2021/08/27 02:11:51;;;;;;;0.50;0.20;;;;;;;;;;5015237;28;20413;-42
2021/08/27 02:14:17;;;;;;;1.27;0.10;;;;;;;;;;5015154;28;20034;-43
2021/08/27 02:16:43;;;;;;;0.10;0.10;;;;;;;;;;5015173;28;20514;-43
2021/08/27 02:19:09;;;;;;;0.45;0.13;;;;;;;;;;5015050;28;20048;-43
2021/08/27 02:21:41;;;;;;;0.35;0.10;;;;;;;;;;5015095;28;20029;-43
2021/08/27 02:24:10;;;;;;;0.00;0.00;;;;;;;;;;5014887;28;20033;-42
2021/08/27 02:26:36;;;;;;;0.10;0.10;;;;;;;;;;5015028;28;20026;-42
2021/08/27 02:29:01;;;;;;;0.13;0.13;;;;;;;;;;5015029;28;20045;-43
2021/08/27 02:31:28;;;;;;;0.55;0.40;;;;;;;;;;5015148;28;20029;-42
2021/08/27 02:33:54;;;;;;;0.22;0.10;;;;;;;;;;5014692;28;20030;-42
2021/08/27 02:36:20;;;;;;;0.10;0.10;;;;;;;;;;5014717;28;20026;-43
2021/08/27 02:38:47;;;;;;;0.88;0.10;;;;;;;;;;5014751;28;20034;-43
2021/08/27 02:41:13;;;;;;;0.10;0.10;;;;;;;;;;5014601;28;20042;-42
2021/08/27 02:43:38;;;;;;;0.30;0.20;;;;;;;;;;5014538;28;20092;-44
2021/08/27 02:46:03;;;;;;;3.72;0.20;;;;;;;;;;5014818;28;20072;-42
2021/08/27 02:48:29;;;;;;;0.73;0.30;;;;;;;;;;5014482;28;20400;-42
2021/08/27 02:51:02;;;;;;;0.13;0.13;;;;;;;;;;5014407;28;20569;-42
2021/08/27 02:53:29;;;;;;;3.50;0.10;;;;;;;;;;5014388;28;20424;-43
2021/08/27 02:56:21;;;;;;;3.67;0.20;;;;;;;;;;5014575;28;20029;-42
2021/08/27 02:58:49;;;;;;;0.93;0.20;;;;;;;;;;5013303;28;20046;-43
2021/08/27 03:01:36;;;;;;;0.50;0.10;;;;;;;;;;5014532;28;20065;-42
2021/08/27 03:04:02;;;;;;;0.90;0.30;;;;;;;;;;5014139;28;20227;-43
2021/08/27 03:06:30;;;;;;;0.43;0.40;;;;;;;;;;5014212;28;20018;-42
2021/08/27 03:09:04;;;;;;;1.60;0.43;;;;;;;;;;5013988;28;20416;-42
2021/08/27 03:11:31;;;;;;;0.20;0.20;;;;;;;;;;5014424;28;20365;-42
2021/08/27 03:14:05;;;;;;;0.10;0.10;;;;;;;;;;5013930;28;20073;-43
2021/08/27 03:16:30;;;;;;;1.10;0.20;;;;;;;;;;5014068;28;20032;-43
2021/08/27 03:18:59;;;;;;;0.80;0.20;;;;;;;;;;5013168;28;20101;-43
2021/08/27 03:21:33;;;;;;;0.20;0.20;;;;;;;;;;5013999;28;20091;-42
2021/08/27 03:24:01;;;;;;;2.63;0.30;;;;;;;;;;5013808;28;20042;-42
2021/08/27 03:26:29;;;;;;;3.13;0.20;;;;;;;;;;5013793;28;20044;-42
2021/08/27 03:28:58;;;;;;;0.30;0.20;;;;;;;;;;5013643;28;20042;-42
2021/08/27 03:31:24;;;;;;;1.00;0.52;;;;;;;;;;5013964;28;20017;-42
2021/08/27 03:33:50;;;;;;;0.75;0.35;;;;;;;;;;5013920;28;20033;-43
2021/08/27 03:36:16;;;;;;;2.38;0.30;;;;;;;;;;5013575;28;20018;-42
2021/08/27 03:38:41;;;;;;;0.55;0.30;;;;;;;;;;5013631;28;20070;-42
2021/08/27 03:41:07;;;;;;;0.30;0.20;;;;;;;;;;5012203;28;20029;-44
2021/08/27 03:43:33;;;;;;;0.32;0.30;;;;;;;;;;5013448;28;20065;-43
2021/08/27 03:45:59;;;;;;;0.65;0.30;;;;;;;;;;5013527;28;20026;-49
2021/08/27 03:48:25;;;;;;;0.70;0.25;;;;;;;;;;5013626;28;20385;-42
2021/08/27 03:50:51;;;;;;;0.30;0.30;;;;;;;;;;5013456;28;20112;-42
2021/08/27 03:53:17;;;;;;;1.15;0.40;;;;;;;;;;5013224;28;20029;-43
2021/08/27 03:55:43;;;;;;;1.05;0.30;;;;;;;;;;5013281;28;20021;-42
2021/08/27 03:58:11;;;;;;;0.52;0.28;;;;;;;;;;5013250;28;20112;-43
2021/08/27 04:00:37;;;;;;;4.82;0.20;;;;;;;;;;5013484;28;20025;-42
2021/08/27 04:03:03;;;;;;;0.10;0.10;;;;;;;;;;5013104;28;20058;-42
2021/08/27 04:05:28;;;;;;;2.38;0.38;;;;;;;;;;5013423;28;20061;-43
2021/08/27 04:07:53;;;;;;;0.80;0.25;;;;;;;;;;5013049;28;20433;-43
2021/08/27 04:10:20;;;;;;;4.15;0.25;;;;;;;;;;5013122;28;20029;-43
2021/08/27 04:12:45;;;;;;;0.20;0.20;;;;;;;;;;5013090;28;20072;-43
2021/08/27 04:15:12;;;;;;;0.38;0.30;;;;;;;;;;5012896;28;20037;-43
2021/08/27 04:17:38;;;;;;;0.95;0.30;;;;;;;;;;5013294;28;20029;-42
2021/08/27 04:20:04;;;;;;;0.43;0.25;;;;;;;;;;5012887;28;20014;-43
2021/08/27 04:22:30;;;;;;;0.63;0.38;;;;;;;;;;5012949;28;20469;-43
2021/08/27 04:24:55;;;;;;;4.85;0.47;;;;;;;;;;5012848;28;20033;-43
2021/08/27 04:27:20;;;;;;;1.38;0.40;;;;;;;;;;5012877;28;20040;-43
2021/08/27 04:29:46;;;;;;;2.30;0.47;;;;;;;;;;5012556;28;20034;-42
2021/08/27 04:32:11;;;;;;;0.40;0.22;;;;;;;;;;5012652;28;20026;-42
2021/08/27 04:34:37;;;;;;;0.25;0.25;;;;;;;;;;5012824;28;20022;-42
2021/08/27 04:37:02;;;;;;;1.85;0.32;;;;;;;;;;5012589;28;20065;-43
2021/08/27 04:39:28;;;;;;;0.35;0.30;;;;;;;;;;5044791;28;20017;-42
2021/08/27 04:41:53;;;;;;;0.43;0.32;;;;;;;;;;5013013;28;20022;-42
2021/08/27 04:44:18;;;;;;;0.70;0.30;;;;;;;;;;5012460;28;20049;-42
2021/08/27 04:46:44;;;;;;;0.50;0.30;;;;;;;;;;5012673;28;20026;-43
2021/08/27 04:49:09;;;;;;;0.38;0.20;;;;;;;;;;5012503;28;20389;-42
2021/08/27 04:51:35;;;;;;;0.50;0.32;;;;;;;;;;5012529;28;20038;-43
2021/08/27 04:54:00;;;;;;;1.65;0.40;;;;;;;;;;5012736;28;20025;-42
2021/08/27 04:56:26;;;;;;;0.45;0.20;;;;;;;;;;5012568;28;20536;-42
2021/08/27 04:58:51;;;;;;;0.70;0.20;;;;;;;;;;5012528;28;20018;-43
2021/08/27 05:01:17;;;;;;;0.60;0.40;;;;;;;;;;5012523;28;20029;-43
2021/08/27 05:03:42;;;;;;;1.08;0.20;;;;;;;;;;5012697;28;20028;-43
2021/08/27 05:06:08;;;;;;;0.60;0.30;;;;;;;;;;5012370;28;20384;-43
2021/08/27 05:08:33;;;;;;;0.50;0.30;;;;;;;;;;5012669;28;20026;-42
2021/08/27 05:10:59;;;;;;;0.40;0.22;;;;;;;;;;5012694;28;20514;-42
2021/08/27 05:13:24;;;;;;;0.95;0.30;;;;;;;;;;5012286;28;20030;-44
2021/08/27 05:15:50;;;;;;;1.17;0.32;;;;;;;;;;5012687;28;20064;-43
2021/08/27 05:18:15;;;;;;;0.77;0.28;;;;;;;;;;5012244;28;20422;-42
2021/08/27 05:20:41;;;;;;;0.47;0.30;;;;;;;;;;5012306;28;20026;-42
2021/08/27 05:23:06;;;;;;;0.68;0.20;;;;;;;;;;5010940;28;20053;-42
2021/08/27 05:25:31;;;;;;;2.78;0.30;;;;;;;;;;5012299;28;20388;-43
2021/08/27 05:27:57;;;;;;;0.50;0.22;;;;;;;;;;5027596;28;20022;-42
2021/08/27 05:30:22;;;;;;;0.40;0.25;;;;;;;;;;5012527;28;20393;-42
2021/08/27 05:32:48;;;;;;;0.47;0.40;;;;;;;;;;5012361;28;20014;-43
2021/08/27 05:35:14;;;;;;;0.55;0.25;;;;;;;;;;5011978;28;20033;-42
2021/08/27 05:37:40;;;;;;;0.57;0.35;;;;;;;;;;5012528;28;20479;-42
2021/08/27 05:40:06;;;;;;;0.50;0.45;;;;;;;;;;5012324;28;20021;-43
2021/08/27 05:42:31;;;;;;;4.15;0.40;;;;;;;;;;5014642;28;20346;-42
2021/08/27 05:44:56;;;;;;;2.17;0.57;;;;;;;;;;5015511;28;20038;-42
2021/08/27 05:47:22;;;;;;;1.17;0.45;;;;;;;;;;5015999;28;20382;-43
2021/08/27 05:49:47;;;;;;;0.52;0.30;;;;;;;;;;5015531;28;20511;-43
2021/08/27 05:52:13;;;;;;;0.57;0.30;;;;;;;;;;5015539;28;20018;-42
2021/08/27 05:54:38;;;;;;;0.40;0.30;;;;;;;;;;5015858;28;20030;-42
2021/08/27 05:57:04;;;;;;;0.95;0.35;;;;;;;;;;5015714;28;20337;-42
2021/08/27 05:59:29;;;;;;;0.40;0.30;;;;;;;;;;5015529;28;20044;-42
2021/08/27 06:01:55;;;;;;;0.32;0.32;;;;;;;;;;5015546;28;20046;-42
2021/08/27 06:04:20;;;;;;;0.22;0.22;;;;;;;;;;5015423;28;20108;-42
2021/08/27 06:06:48;;;;;;;0.43;0.35;;;;;;;;;;5014049;28;20022;-43
2021/08/27 06:09:14;;;;;;;0.88;0.40;;;;;;;;;;5015134;28;20045;-43
2021/08/27 06:11:39;;;;;;;0.93;0.30;;;;;;;;;;5015186;28;20026;-42
2021/08/27 06:14:05;;;;;;;0.40;0.40;;;;;;;;;;5015101;28;20096;-43
2021/08/27 06:16:31;;;;;;;0.90;0.40;;;;;;;;;;5015210;28;20020;-42
2021/08/27 06:18:56;;;;;;;0.85;0.30;;;;;;;;;;5015053;28;20504;-43
2021/08/27 06:21:22;;;;;;;0.77;0.60;;;;;;;;;;5015077;28;20013;-42
2021/08/27 06:23:48;;;;;;;1.40;0.40;;;;;;;;;;5014568;28;20030;-42
2021/08/27 06:26:13;;;;;;;4.90;0.38;;;;;;;;;;5015175;28;20014;-42
2021/08/27 06:28:38;;;;;;;0.60;0.40;;;;;;;;;;5014965;28;20046;-42
2021/08/27 06:31:04;;;;;;;0.43;0.30;;;;;;;;;;5014745;28;20054;-43
2021/08/27 06:33:31;;;;;;;0.35;0.25;;;;;;;;;;5014847;28;20114;-42
2021/08/27 06:35:56;;;;;;;1.10;0.50;;;;;;;;;;5014838;28;20350;-43
2021/08/27 06:38:25;;;;;;;1.98;0.30;;;;;;;;;;5014760;28;20110;-42
2021/08/27 06:40:52;;;;;;;0.47;0.32;;;;;;;;;;5014721;28;20376;-43
2021/08/27 06:43:18;;;;;;;0.50;0.38;;;;;;;;;;5014356;28;20038;-43
2021/08/27 06:45:43;;;;;;;0.43;0.30;;;;;;;;;;5014588;28;20030;-43
2021/08/27 06:48:08;;;;;;;4.03;0.40;;;;;;;;;;5014150;28;20041;-43
2021/08/27 06:50:38;;;;;;;0.50;0.22;;;;;;;;;;5014519;28;20033;-43
2021/08/27 06:53:03;;;;;;;0.75;0.40;;;;;;;;;;5014493;28;20029;-43
2021/08/27 06:55:29;;;;;;;0.47;0.30;;;;;;;;;;5013196;28;20030;-43
2021/08/27 06:57:54;;;;;;;0.70;0.30;;;;;;;;;;5046577;28;20030;-43
2021/08/27 07:00:20;;;;;;;0.47;0.35;;;;;;;;;;5014286;28;20026;-43
2021/08/27 07:02:45;;;;;;;1.30;0.35;;;;;;;;;;5014600;28;20033;-43
2021/08/27 07:05:10;;;;;;;0.85;0.35;;;;;;;;;;5014413;28;20017;-42
2021/08/27 07:07:36;;;;;;;1.17;0.55;;;;;;;;;;5014414;28;20034;-43
2021/08/27 07:10:02;;;;;;;0.57;0.40;;;;;;;;;;5014304;28;20028;-43
2021/08/27 07:12:27;;;;;;;0.57;0.40;;;;;;;;;;5046066;28;20465;-43
2021/08/27 07:14:53;;;;;;;0.65;0.40;;;;;;;;;;5014010;28;20384;-43
2021/08/27 07:17:19;;;;;;;2.58;0.40;;;;;;;;;;5014240;28;20030;-43
2021/08/27 07:19:45;;;;;;;2.92;0.70;;;;;;;;;;5013958;28;20018;-42
2021/08/27 07:22:10;;;;;;;1.55;0.40;;;;;;;;;;5045934;28;20424;-43
2021/08/27 07:24:36;;;;;;;1.10;0.40;;;;;;;;;;5013868;28;20018;-43
2021/08/27 07:27:01;;;;;;;0.70;0.50;;;;;;;;;;5013788;28;20021;-43
2021/08/27 07:29:27;;;;;;;0.93;0.45;;;;;;;;;;5013737;28;20029;-42
2021/08/27 07:31:52;;;;;;;0.95;0.40;;;;;;;;;;5013824;28;20032;-43
2021/08/27 07:34:17;;;;;;;1.00;0.52;;;;;;;;;;5012665;28;20110;-43
2021/08/27 07:36:43;;;;;;;0.95;0.60;;;;;;;;;;5013656;28;20385;-42
2021/08/27 07:39:08;;;;;;;0.73;0.38;;;;;;;;;;5013537;28;20026;-44
2021/08/27 07:41:33;;;;;;;0.52;0.30;;;;;;;;;;5013548;28;20026;-43
2021/08/27 07:43:59;;;;;;;4.38;0.38;;;;;;;;;;5013365;28;20054;-43
2021/08/27 07:46:24;;;;;;;0.85;0.40;;;;;;;;;;5013512;28;20104;-43
2021/08/27 07:48:50;;;;;;;1.13;0.85;;;;;;;;;;5013361;28;20045;-43
2021/08/27 07:51:17;;;;;;;1.52;0.30;;;;;;;;;;5013296;28;20056;-42
2021/08/27 07:53:42;;;;;;;2.40;0.60;;;;;;;;;;5013314;28;20029;-42
2021/08/27 07:56:07;;;;;;;1.35;0.73;;;;;;;;;;5013611;28;20033;-42
2021/08/27 07:58:33;;;;;;;1.58;0.85;;;;;;;;;;5013345;28;20097;-43
2021/08/27 08:00:58;;;;;;;1.38;0.77;;;;;;;;;;5013268;28;20420;-43
2021/08/27 08:03:24;;;;;;;3.92;0.60;;;;;;;;;;5011879;28;20056;-43
2021/08/27 08:05:49;;;;;;;1.30;0.60;;;;;;;;;;5012628;28;20038;-43
2021/08/27 08:08:15;;;;;;;1.73;0.55;;;;;;;;;;5012975;28;20026;-42
2021/08/27 08:10:40;;;;;;;0.57;0.43;;;;;;;;;;5013060;28;20072;-43
2021/08/27 08:13:05;;;;;;;4.30;1.02;;;;;;;;;;5013184;28;20144;-42
2021/08/27 08:15:31;;;;;;;1.70;0.80;;;;;;;;;;5013063;28;20465;-43
2021/08/27 08:17:56;;;;;;;2.90;1.13;;;;;;;;;;5012902;28;20056;-43
2021/08/27 08:20:22;;;;;;;1.35;0.77;;;;;;;;;;5013010;28;20112;-42
2021/08/27 08:22:47;;;;;;;4.88;0.68;;;;;;;;;;5012977;28;20029;-43
2021/08/27 08:25:13;;;;;;;1.40;0.50;;;;;;;;;;5013010;28;20061;-43
2021/08/27 08:27:39;;;;;;;0.90;0.45;;;;;;;;;;5012931;28;20420;-42
2021/08/27 08:30:05;;;;;;;3.83;0.82;;;;;;;;;;5012692;28;20116;-43
2021/08/27 08:32:30;;;;;;;1.27;0.60;;;;;;;;;;5011780;28;20457;-42
2021/08/27 08:34:55;;;;;;;1.67;0.70;;;;;;;;;;5012797;28;20038;-42
2021/08/27 08:37:21;;;;;;;3.75;0.77;;;;;;;;;;5012664;28;20020;-42
2021/08/27 08:39:47;;;;;;;1.23;0.68;;;;;;;;;;5012947;28;20060;-43
2021/08/27 08:42:13;;;;;;;1.40;0.40;;;;;;;;;;5012830;28;20036;-42
2021/08/27 08:44:38;;;;;;;0.63;0.38;;;;;;;;;;5012504;28;20531;-42
2021/08/27 08:47:06;;;;;;;2.83;0.30;;;;;;;;;;5044607;28;20042;-42
2021/08/27 08:49:33;;;;;;;1.58;0.45;;;;;;;;;;5012546;28;20053;-42
2021/08/27 08:51:58;;;;;;;2.13;0.68;;;;;;;;;;5027850;28;20026;-43
2021/08/27 08:54:24;;;;;;;1.00;0.50;;;;;;;;;;5012440;28;20033;-42
2021/08/27 08:56:49;;;;;;;3.60;0.70;;;;;;;;;;5012652;28;20029;-42
2021/08/27 08:59:15;;;;;;;1.05;0.73;;;;;;;;;;5012900;28;20030;-42
2021/08/27 09:01:40;;;;;;;0.80;0.60;;;;;;;;;;5012750;28;20014;-42
2021/08/27 09:04:06;;;;;;;2.50;0.65;;;;;;;;;;5012419;28;20487;-42
2021/08/27 09:06:33;;;;;;;1.10;0.70;;;;;;;;;;5012477;28;20507;-43
2021/08/27 09:09:00;;;;;;;1.73;0.85;;;;;;;;;;5012229;28;20045;-43
2021/08/27 09:11:26;;;;;;;2.22;0.80;;;;;;;;;;5012440;28;20049;-43
2021/08/27 09:13:52;;;;;;;3.08;0.88;;;;;;;;;;5012621;28;20029;-42
2021/08/27 09:16:18;;;;;;;1.17;0.70;;;;;;;;;;5012750;28;20018;-43
2021/08/27 09:18:45;;;;;;;1.67;0.82;;;;;;;;;;5016529;28;20034;-42
2021/08/27 09:21:26;;;;;;;1.20;0.80;;;;;;;;;;5016114;28;20014;-43
2021/08/27 09:24:10;;;;;;;1.23;0.57;;;;;;;;;;5016149;28;20045;-43
2021/08/27 09:26:36;;;;;;;0.50;0.40;;;;;;;;;;5016515;28;20372;-42
2021/08/27 09:29:01;;;;;;;1.08;0.70;;;;;;;;;;5015835;28;20026;-42
2021/08/27 09:31:33;;;;;;;1.48;1.15;;;;;;;;;;5016231;28;20037;-43
2021/08/27 09:33:58;;;;;;;0.85;0.38;;;;;;;;;;5015893;28;20037;-42
2021/08/27 09:36:24;;;;;;;1.27;0.63;;;;;;;;;;5016161;28;20029;-43
2021/08/27 09:38:59;;;;;;;1.05;0.63;;;;;;;;;;5016188;28;20029;-43
2021/08/27 09:41:24;;;;;;;1.70;0.98;;;;;;;;;;5016397;28;20068;-42
2021/08/27 09:43:51;;;;;;;1.83;0.73;;;;;;;;;;5015620;28;20444;-42
2021/08/27 09:46:28;;;;;;;2.13;0.77;;;;;;;;;;5015745;28;20034;-42
2021/08/27 09:48:54;;;;;;;1.38;0.60;;;;;;;;;;5015731;28;20034;-43
2021/08/27 09:51:39;;;;;;;1.20;0.70;;;;;;;;;;5015512;28;20018;-43
2021/08/27 09:54:05;;;;;;;3.47;0.82;;;;;;;;;;5015573;28;20045;-43
2021/08/27 09:56:46;;;;;;;0.60;0.45;;;;;;;;;;5015823;28;20022;-43
2021/08/27 09:59:13;;;;;;;2.22;0.50;;;;;;;;;;5015704;28;20121;-42
2021/08/27 10:01:45;;;;;;;1.33;0.80;;;;;;;;;;5015541;28;20017;-43
2021/08/27 10:04:10;;;;;;;0.83;0.50;;;;;;;;;;5015337;28;20034;-42
2021/08/27 10:06:35;;;;;;;1.00;0.70;;;;;;;;;;5015646;28;20254;-42
2021/08/27 10:09:01;;;;;;;1.58;0.88;;;;;;;;;;5015143;28;20042;-43
2021/08/27 10:11:27;;;;;;;1.38;0.93;;;;;;;;;;5015318;28;20025;-42
2021/08/27 10:13:53;;;;;;;1.42;0.60;;;;;;;;;;5015187;28;20467;-42
2021/08/27 10:16:18;;;;;;;2.65;0.77;;;;;;;;;;5015174;28;20025;-43
2021/08/27 10:18:44;;;;;;;1.63;0.95;;;;;;;;;;5015058;28;20511;-42
2021/08/27 10:21:09;;;;;;;0.75;0.55;;;;;;;;;;5015329;28;20025;-42
2021/08/27 10:23:35;;;;;;;1.00;0.70;;;;;;;;;;5015372;28;20072;-42
2021/08/27 10:26:15;;;;;;;1.25;0.95;;;;;;;;;;5014809;28;20412;-43
2021/08/27 10:28:41;;;;;;;2.45;1.50;;;;;;;;;;5029805;28;20120;-43
2021/08/27 10:31:06;;;;;;;1.58;0.80;;;;;;;;;;5014883;28;20428;-43
2021/08/27 10:33:41;;;;;;;1.25;0.80;;;;;;;;;;5014803;28;20041;-43
2021/08/27 10:36:07;;;;;;;1.15;0.63;;;;;;;;;;5014724;28;20473;-42
2021/08/27 10:38:42;;;;;;;1.75;1.10;;;;;;;;;;5014774;28;20021;-42
2021/08/27 10:41:17;;;;;;;1.67;0.70;;;;;;;;;;5014550;28;20029;-43
2021/08/27 10:43:58;;;;;;;1.17;0.90;;;;;;;;;;5014379;28;20488;-42
2021/08/27 10:46:44;;;;;;;1.77;1.30;;;;;;;;;;5014668;28;20037;-42
2021/08/27 10:49:14;;;;;;;1.65;0.65;;;;;;;;;;5010328;28;20721;-42
2021/08/27 10:51:40;;;;;;;1.98;0.95;;;;;;;;;;5014562;28;20552;-43
2021/08/27 10:54:07;;;;;;;1.95;0.88;;;;;;;;;;5014083;28;20034;-42
2021/08/27 10:56:51;;;;;;;1.42;0.90;;;;;;;;;;5014466;28;20049;-43
2021/08/27 10:59:18;;;;;;;3.15;0.90;;;;;;;;;;5014325;28;20037;-42
2021/08/27 11:01:45;;;;;;;3.15;0.80;;;;;;;;;;5046312;28;20022;-42
2021/08/27 11:04:24;;;;;;;1.27;0.68;;;;;;;;;;5014223;28;20030;-43
2021/08/27 11:06:53;;;;;;;1.13;0.85;;;;;;;;;;5014158;28;20037;-42
2021/08/27 11:09:23;;;;;;;3.92;0.90;;;;;;;;;;5014249;28;20036;-42
2021/08/27 11:12:07;;;;;;;1.15;0.70;;;;;;;;;;5014192;28;20025;-42
2021/08/27 11:14:32;;;;;;;1.60;0.73;;;;;;;;;;5013993;28;20037;-43
2021/08/27 11:16:59;;;;;;;1.92;0.52;;;;;;;;;;5014030;28;20021;-42
2021/08/27 11:19:29;;;;;;;1.85;0.80;;;;;;;;;;5014252;28;20073;-43
2021/08/27 11:21:56;;;;;;;2.03;1.08;;;;;;;;;;5014184;28;20026;-42
2021/08/27 11:24:23;;;;;;;0.82;0.70;;;;;;;;;;5014105;28;20025;-43
2021/08/27 11:26:57;;;;;;;0.70;0.60;;;;;;;;;;5014176;28;20030;-42
2021/08/27 11:29:29;;;;;;;1.85;0.77;;;;;;;;;;5013902;28;20038;-42
2021/08/27 11:31:55;;;;;;;1.63;0.82;;;;;;;;;;5013816;28;20097;-42
2021/08/27 11:34:24;;;;;;;1.65;0.88;;;;;;;;;;5013898;28;20444;-42
2021/08/27 11:36:50;;;;;;;0.85;0.68;;;;;;;;;;5013728;28;20038;-42
2021/08/27 11:39:16;;;;;;;2.08;0.80;;;;;;;;;;5012892;28;20072;-42
2021/08/27 11:41:42;;;;;;;1.52;0.57;;;;;;;;;;5013711;28;20018;-43
2021/08/27 11:44:08;;;;;;;2.08;0.70;;;;;;;;;;5012927;28;20114;-42
2021/08/27 11:46:34;;;;;;;3.63;1.30;;;;;;;;;;5013602;28;20083;-42
2021/08/27 11:49:04;;;;;;;3.63;0.85;;;;;;;;;;5045194;28;20056;-42
2021/08/27 11:51:34;;;;;;;1.38;0.82;;;;;;;;;;5013447;28;20030;-42
2021/08/27 11:54:15;;;;;;;2.72;1.08;;;;;;;;;;5012089;28;20038;-43
2021/08/27 11:56:40;;;;;;;2.22;1.38;;;;;;;;;;5013386;28;20121;-42
2021/08/27 11:59:06;;;;;;;3.13;1.02;;;;;;;;;;5013463;28;20049;-42
2021/08/27 12:01:32;;;;;;;0.88;0.63;;;;;;;;;;5013197;28;20034;-43
2021/08/27 12:03:57;;;;;;;1.80;0.90;;;;;;;;;;5013143;28;20014;-43
2021/08/27 12:06:24;;;;;;;2.10;0.70;;;;;;;;;;5013107;28;20117;-43
2021/08/27 12:08:49;;;;;;;1.33;0.88;;;;;;;;;;5013016;28;20057;-42
2021/08/27 12:11:15;;;;;;;2.03;0.70;;;;;;;;;;5013024;28;20068;-41
2021/08/27 12:13:52;;;;;;;3.88;0.80;;;;;;;;;;5013004;28;20024;-43
2021/08/27 12:16:19;;;;;;;0.95;0.43;;;;;;;;;;5044925;28;20059;-43
2021/08/27 12:18:48;;;;;;;1.25;0.80;;;;;;;;;;5012665;28;20024;-42
2021/08/27 12:21:20;;;;;;;1.30;0.63;;;;;;;;;;5012834;28;20073;-42
2021/08/27 12:23:56;;;;;;;1.13;0.73;;;;;;;;;;5012749;28;20373;-43
2021/08/27 12:26:22;;;;;;;2.42;0.90;;;;;;;;;;5012726;28;20469;-42
2021/08/27 12:28:48;;;;;;;1.75;0.77;;;;;;;;;;5012856;28;20033;-42
2021/08/27 12:31:13;;;;;;;3.42;0.93;;;;;;;;;;5012999;28;20025;-43
2021/08/27 12:33:39;;;;;;;1.52;0.90;;;;;;;;;;5013035;28;20022;-43
2021/08/27 12:36:05;;;;;;;1.13;0.75;;;;;;;;;;5012682;28;20084;-43
2021/08/27 12:38:30;;;;;;;2.40;0.82;;;;;;;;;;5013062;28;20053;-42
2021/08/27 12:41:10;;;;;;;2.40;0.93;;;;;;;;;;5027948;28;20447;-43
2021/08/27 12:43:35;;;;;;;4.75;0.70;;;;;;;;;;5011846;28;20374;-42
2021/08/27 12:46:01;;;;;;;2.25;0.95;;;;;;;;;;5012930;28;20034;-42
2021/08/27 12:48:27;;;;;;;1.35;0.73;;;;;;;;;;5012477;28;20038;-43
2021/08/27 12:50:54;;;;;;;1.13;0.63;;;;;;;;;;5015430;28;20021;-43
2021/08/27 12:53:32;;;;;;;1.13;0.75;;;;;;;;;;5050837;28;20125;-44
2021/08/27 12:56:06;;;;;;;1.05;0.73;;;;;;;;;;5019137;28;20543;-42
2021/08/27 12:58:32;;;;;;;2.17;1.00;;;;;;;;;;5019139;28;20117;-43
2021/08/27 13:01:12;;;;;;;0.85;0.80;;;;;;;;;;5019327;28;20105;-43
2021/08/27 13:03:38;;;;;;;1.85;0.98;;;;;;;;;;5019053;28;20030;-43
2021/08/27 13:06:04;;;;;;;1.15;0.60;;;;;;;;;;5019046;28;20040;-43
2021/08/27 13:08:29;;;;;;;2.78;1.25;;;;;;;;;;5018827;28;20045;-42
2021/08/27 13:11:01;;;;;;;1.45;0.90;;;;;;;;;;5034337;28;20025;-43
2021/08/27 13:13:27;;;;;;;3.58;0.73;;;;;;;;;;5034182;28;20034;-42
2021/08/27 13:16:12;;;;;;;1.00;0.57;;;;;;;;;;5018896;28;20041;-43
2021/08/27 13:18:38;;;;;;;1.17;0.85;;;;;;;;;;5019247;28;20030;-43
2021/08/27 13:21:04;;;;;;;1.60;0.98;;;;;;;;;;5017528;28;20049;-42
2021/08/27 13:23:31;;;;;;;4.57;1.20;;;;;;;;;;5018897;28;20069;-43
2021/08/27 13:25:57;;;;;;;1.13;0.70;;;;;;;;;;5019177;28;20113;-42
2021/08/27 13:28:23;;;;;;;1.83;1.10;;;;;;;;;;5018569;28;20516;-42
2021/08/27 13:30:49;;;;;;;1.88;0.80;;;;;;;;;;5019049;28;20044;-42
2021/08/27 13:33:14;;;;;;;1.73;1.10;;;;;;;;;;5018435;28;20473;-43
2021/08/27 13:35:43;;;;;;;1.20;0.90;;;;;;;;;;5017522;28;20168;-44
2021/08/27 13:38:09;;;;;;;1.85;1.02;;;;;;;;;;5018622;28;20237;-43
2021/08/27 13:40:34;;;;;;;3.08;0.70;;;;;;;;;;5019071;28;20017;-43
2021/08/27 13:43:00;;;;;;;1.38;0.90;;;;;;;;;;5018246;28;20038;-43
2021/08/27 13:45:25;;;;;;;2.88;1.10;;;;;;;;;;5018380;28;20052;-44
2021/08/27 13:47:51;;;;;;;2.17;1.00;;;;;;;;;;5018652;28;20032;-43
2021/08/27 13:50:16;;;;;;;5.35;1.40;;;;;;;;;;5018521;28;20108;-43
2021/08/27 13:52:43;;;;;;;4.03;1.20;;;;;;;;;;5018838;28;20180;-43
2021/08/27 13:55:10;;;;;;;5.72;1.45;;;;;;;;;;5018558;28;20482;-43
2021/08/27 13:57:36;;;;;;;2.35;1.40;;;;;;;;;;5018631;28;20480;-44
2021/08/27 14:00:03;;;;;;;3.95;1.02;;;;;;;;;;5018508;28;20022;-43
2021/08/27 14:02:30;;;;;;;2.47;0.77;;;;;;;;;;5016388;28;20044;-43
2021/08/27 14:04:55;;;;;;;2.13;0.98;;;;;;;;;;5015452;28;20404;-43
2021/08/27 14:07:21;;;;;;;6.32;1.30;;;;;;;;;;5015347;28;20452;-43
2021/08/27 14:09:47;;;;;;;3.03;0.85;;;;;;;;;;5015596;28;20080;-43
2021/08/27 14:12:12;;;;;;;2.47;0.90;;;;;;;;;;5015383;28;20492;-43
2021/08/27 14:14:37;;;;;;;2.38;1.13;;;;;;;;;;5015320;28;20365;-44
2021/08/27 14:17:03;;;;;;;1.42;0.55;;;;;;;;;;5015144;28;20026;-42
2021/08/27 14:19:28;;;;;;;4.88;1.13;;;;;;;;;;5015121;28;20423;-43
2021/08/27 14:21:54;;;;;;;2.38;1.13;;;;;;;;;;5015187;28;20033;-42
2021/08/27 14:24:19;;;;;;;1.58;1.13;;;;;;;;;;5015007;28;20022;-43
2021/08/27 14:26:45;;;;;;;4.60;1.08;;;;;;;;;;5015040;28;20026;-43
2021/08/27 14:29:10;;;;;;;1.60;1.33;;;;;;;;;;5014799;28;20034;-43
2021/08/27 14:31:37;;;;;;;2.17;0.95;;;;;;;;;;5014974;28;20029;-43
2021/08/27 14:34:03;;;;;;;3.78;1.20;;;;;;;;;;5015026;28;20017;-43
2021/08/27 14:36:31;;;;;;;2.00;1.10;;;;;;;;;;5013636;28;20385;-43
2021/08/27 14:38:57;;;;;;;3.25;1.30;;;;;;;;;;5015127;28;20504;-43
2021/08/27 14:41:22;;;;;;;2.60;1.00;;;;;;;;;;5013337;28;20061;-43
2021/08/27 14:43:48;;;;;;;3.80;1.17;;;;;;;;;;5014523;28;20133;-43